Time;durP1;ratioP1;P1;durP2;ratioP2;P2;SDS_P1;SDS_P2;PMS_P1;PMS_P2;Temp;Humidity;BMP_temperature;BMP_pressure;BME280_temperature;BME280_humidity;BME280_pressure;Samples;Min_cycle;Max_cycle;Signal;HPM_P1;HPM_P2
2023/09/12 00:34:42;;;;;;;58.72;40.15;;;19.10;99.90;;;;;;4889758;29;20216;-91
2023/09/12 00:41:49;;;;;;;64.90;41.65;;;19.10;99.90;;;;;;4847566;29;20499;-90
2023/09/12 00:48:51;;;;;;;62.33;44.03;;;19.10;99.90;;;;;;4847090;29;20086;-90
2023/09/12 00:55:23;;;;;;;70.53;44.47;;;19.20;99.90;;;;;;4847303;29;20030;-90
2023/09/12 00:57:55;;;;;;;63.95;44.88;;;19.10;99.90;;;;;;4830990;29;20114;-90
2023/09/12 01:00:25;;;;;;;60.13;42.80;;;19.10;99.90;;;;;;4845879;29;20061;-90
2023/09/12 01:03:01;;;;;;;64.97;42.55;;;19.20;99.90;;;;;;4846052;29;20046;-90
2023/09/12 01:10:06;;;;;;;55.20;40.55;;;19.20;99.90;;;;;;4836276;29;20050;-91
2023/09/12 01:13:33;;;;;;;54.42;41.55;;;19.20;99.90;;;;;;4818851;29;20190;-90
2023/09/12 01:16:06;;;;;;;61.58;42.38;;;19.20;99.90;;;;;;4846050;29;20105;-90
2023/09/12 01:18:52;;;;;;;61.03;42.63;;;19.20;99.90;;;;;;4815351;29;20061;-90
2023/09/12 01:22:01;;;;;;;62.75;42.80;;;19.10;99.90;;;;;;4801281;29;20033;-90
2023/09/12 01:24:50;;;;;;;66.63;44.00;;;19.10;99.90;;;;;;4815150;29;20044;-90
2023/09/12 01:27:48;;;;;;;68.13;44.28;;;19.10;99.90;;;;;;4815719;29;20045;-90
2023/09/12 01:30:34;;;;;;;54.92;39.92;;;19.10;99.90;;;;;;4801284;29;20431;-91
2023/09/12 01:36:17;;;;;;;69.25;45.78;;;19.00;99.90;;;;;;4844808;29;20045;-90
2023/09/12 01:38:56;;;;;;;57.60;41.63;;;19.00;99.90;;;;;;4848590;29;20037;-90
2023/09/12 01:41:53;;;;;;;68.35;45.30;;;19.00;99.90;;;;;;4836888;29;20037;-90
2023/09/12 01:44:34;;;;;;;75.18;48.70;;;18.90;99.90;;;;;;4866260;29;20410;-91
2023/09/12 01:47:08;;;;;;;68.55;44.95;;;18.90;99.90;;;;;;4866858;29;20041;-91
2023/09/12 01:49:42;;;;;;;84.40;49.05;;;18.90;99.90;;;;;;4867166;29;20060;-90
2023/09/12 01:52:16;;;;;;;74.43;46.45;;;18.90;99.90;;;;;;4851783;29;20044;-90
2023/09/12 01:54:48;;;;;;;74.50;46.75;;;18.90;99.90;;;;;;4866599;29;20101;-90
2023/09/12 01:57:20;;;;;;;65.90;44.20;;;18.80;99.90;;;;;;4866554;29;20092;-90
2023/09/12 01:59:55;;;;;;;81.78;49.17;;;18.80;99.90;;;;;;4852584;29;20063;-91
2023/09/12 02:02:42;;;;;;;75.70;47.40;;;18.70;99.90;;;;;;4831708;29;20124;-90
2023/09/12 02:05:23;;;;;;;88.80;49.97;;;18.70;99.90;;;;;;4866568;29;20071;-90
2023/09/12 02:08:04;;;;;;;92.45;50.25;;;18.70;99.90;;;;;;4866613;29;20041;-90
2023/09/12 02:10:39;;;;;;;86.78;49.88;;;18.70;99.90;;;;;;4852289;29;20111;-90
2023/09/12 02:13:10;;;;;;;75.13;48.22;;;18.60;99.90;;;;;;4866950;29;20029;-90
2023/09/12 02:15:52;;;;;;;;;;;18.60;99.90;;;;;;4852911;29;20076;-90
2023/09/12 02:19:07;;;;;;;70.72;47.13;;;18.60;99.90;;;;;;4871436;29;19919;-90
2023/09/12 02:21:33;;;;;;;66.97;44.67;;;18.60;99.90;;;;;;4835894;29;20043;-90
2023/09/12 02:24:05;;;;;;;69.35;46.53;;;18.60;99.90;;;;;;4836738;29;20060;-90
2023/09/12 02:26:36;;;;;;;73.90;45.97;;;18.60;99.90;;;;;;4836882;29;20043;-90
2023/09/12 02:29:26;;;;;;;66.15;45.28;;;18.60;99.90;;;;;;4850824;29;20417;-90
2023/09/12 02:32:01;;;;;;;94.63;51.55;;;18.60;99.90;;;;;;4851362;29;20124;-90
2023/09/12 02:39:09;;;;;;;82.47;49.00;;;18.60;99.90;;;;;;4882749;29;20039;-90
2023/09/12 02:41:39;;;;;;;78.00;48.90;;;18.50;99.90;;;;;;4851031;29;20505;-90
2023/09/12 02:44:36;;;;;;;;;;;;;;;;;;;;;
2023/09/12 02:47:53;;;;;;;76.82;46.95;;;18.50;99.90;;;;;;4855698;29;20052;-90
2023/09/12 02:52:02;;;;;;;80.03;49.17;;;18.50;99.90;;;;;;4834074;29;20151;-90
2023/09/12 02:58:18;;;;;;;70.80;46.58;;;18.50;99.90;;;;;;4850888;29;20425;-90
2023/09/12 03:00:44;;;;;;;66.70;45.53;;;18.40;99.90;;;;;;4820605;29;20139;-90
2023/09/12 03:04:21;;;;;;;92.25;53.08;;;18.40;99.90;;;;;;4836387;29;20044;-90
2023/09/12 03:11:56;;;;;;;74.10;47.10;;;18.40;99.90;;;;;;4882570;29;20029;-90
2023/09/12 03:14:23;;;;;;;70.63;45.55;;;18.30;99.90;;;;;;4850735;29;20127;-90
2023/09/12 03:16:48;;;;;;;93.32;52.80;;;18.30;99.90;;;;;;4820845;29;20129;-90
2023/09/12 03:19:14;;;;;;;87.65;50.20;;;18.20;99.90;;;;;;4850992;29;20041;-89
2023/09/12 03:31:45;;;;;;;63.28;42.03;;;18.10;99.90;;;;;;4866052;29;20029;-90
2023/09/12 03:35:19;;;;;;;70.55;44.80;;;18.10;99.90;;;;;;4865927;29;20033;-90
2023/09/12 03:37:48;;;;;;;67.88;44.05;;;18.10;99.90;;;;;;4847574;29;20038;-90
2023/09/12 03:40:14;;;;;;;63.00;43.92;;;18.00;99.90;;;;;;4817587;29;20041;-89
2023/09/12 03:42:48;;;;;;;65.93;43.13;;;18.00;99.90;;;;;;4805182;29;20092;-90
2023/09/12 03:45:53;;;;;;;80.90;47.10;;;18.00;99.90;;;;;;4845369;29;20345;-90
2023/09/12 03:48:54;;;;;;;;;;;;;;;;;;;;;
2023/09/12 03:55:49;;;;;;;60.87;41.93;;;18.00;99.90;;;;;;4796119;29;20035;-90
2023/09/12 04:03:33;;;;;;;71.40;44.72;;;18.00;99.90;;;;;;4811255;29;20499;-90
2023/09/12 04:10:55;;;;;;;80.03;46.92;;;17.90;99.90;;;;;;4864778;29;20093;-90
2023/09/12 04:18:28;;;;;;;78.40;46.40;;;17.90;99.90;;;;;;4866350;29;20037;-90
2023/09/12 04:20:57;;;;;;;115.32;54.53;;;17.90;99.90;;;;;;4816657;29;20471;-90
2023/09/12 04:23:27;;;;;;;88.88;47.25;;;17.90;99.90;;;;;;4812961;29;20043;-90
2023/09/12 04:27:08;;;;;;;74.35;43.28;;;17.90;99.90;;;;;;4849764;29;20030;-90
2023/09/12 04:30:00;;;;;;;;;;;;;;;;;;;;;
2023/09/12 04:33:02;;;;;;;106.63;45.90;;;17.90;99.90;;;;;;4839772;29;20046;-90
2023/09/12 04:35:44;;;;;;;100.93;48.17;;;17.90;99.90;;;;;;4834424;29;20038;-90
2023/09/12 04:38:22;;;;;;;125.28;50.20;;;17.90;99.90;;;;;;4853883;29;20048;-90
2023/09/12 04:41:09;;;;;;;94.65;48.83;;;17.90;99.90;;;;;;4843213;29;20068;-90
2023/09/12 04:43:43;;;;;;;167.55;57.30;;;17.90;99.90;;;;;;4852761;29;20056;-90
2023/09/12 04:46:26;;;;;;;115.15;52.58;;;17.90;99.90;;;;;;4853657;29;20072;-91
2023/09/12 04:49:15;;;;;;;121.68;57.08;;;17.90;99.90;;;;;;4857658;29;20382;-90
2023/09/12 04:51:46;;;;;;;247.45;70.88;;;17.80;99.90;;;;;;4867722;29;20384;-90
2023/09/12 04:54:39;;;;;;;152.95;61.40;;;17.80;99.90;;;;;;4854094;29;20065;-90
2023/09/12 04:57:05;;;;;;;144.48;59.83;;;17.80;99.90;;;;;;4852539;29;20037;-90
2023/09/12 05:07:25;;;;;;;174.45;68.78;;;17.80;99.90;;;;;;4853332;29;20126;-91
2023/09/12 05:09:59;;;;;;;121.47;58.38;;;17.80;99.90;;;;;;4852417;29;20025;-91
2023/09/12 05:15:29;;;;;;;151.95;66.28;;;17.80;99.90;;;;;;4852332;29;20033;-90
2023/09/12 05:31:33;;;;;;;102.30;55.72;;;17.80;99.90;;;;;;4772687;30;20055;-90
2023/09/12 05:34:49;;;;;;;;;;;17.80;99.90;;;;;;4774349;29;20449;-89
2023/09/12 05:41:21;;;;;;;102.65;55.45;;;17.90;99.90;;;;;;4737777;30;20044;-90
2023/09/12 05:58:53;;;;;;;95.40;55.53;;;18.10;99.90;;;;;;4737726;30;20164;-91
2023/09/12 06:02:04;;;;;;;83.85;52.13;;;18.20;99.90;;;;;;4736638;30;20182;-90
2023/09/12 06:04:30;;;;;;;101.65;56.03;;;18.20;99.90;;;;;;4740081;29;20039;-89
2023/09/12 06:08:00;;;;;;;84.50;53.10;;;18.20;99.90;;;;;;4800499;29;20055;-89
2023/09/12 07:04:43;;;;;;;77.03;50.00;;;19.30;99.90;;;;;;4881743;29;20052;-90
2023/09/12 07:07:22;;;;;;;74.78;48.60;;;19.30;99.90;;;;;;4851296;29;20037;-90
2023/09/12 07:10:26;;;;;;;69.97;46.40;;;19.40;99.90;;;;;;4840754;29;20072;-90
2023/09/12 07:13:00;;;;;;;77.82;49.35;;;19.50;99.90;;;;;;4850912;29;20033;-90
2023/09/12 07:15:58;;;;;;;71.50;47.47;;;19.60;99.90;;;;;;4855217;29;20116;-89
2023/09/12 07:19:27;;;;;;;63.35;43.63;;;19.60;99.90;;;;;;4885616;29;20332;-89
2023/09/12 07:22:29;;;;;;;65.97;44.03;;;19.70;99.90;;;;;;4857556;29;20033;-90
2023/09/12 07:25:20;;;;;;;66.97;44.97;;;19.80;99.90;;;;;;4868148;29;20071;-90
2023/09/12 07:28:11;;;;;;;58.38;41.67;;;19.90;99.90;;;;;;4855973;29;20040;-89
2023/09/12 07:31:45;;;;;;;;;;;;;;;;;;;;;
2023/09/12 07:34:33;;;;;;;71.47;44.35;;;19.90;99.90;;;;;;4859802;29;20029;-89
2023/09/12 07:37:49;;;;;;;58.83;40.33;;;20.00;99.90;;;;;;4861983;29;20141;-89
2023/09/12 07:41:19;;;;;;;;;;;;;;;;;;;;;
2023/09/12 07:44:15;;;;;;;54.70;39.38;;;20.10;99.90;;;;;;4860034;29;20353;-90
2023/09/12 07:47:08;;;;;;;56.92;39.85;;;20.10;99.90;;;;;;4856179;29;20230;-89
2023/09/12 07:54:17;;;;;;;59.22;41.42;;;20.20;99.90;;;;;;4868869;29;20056;-89
2023/09/12 08:09:37;;;;;;;;;;;20.50;99.90;;;;;;4846266;29;20064;-89
2023/09/12 08:12:03;;;;;;;46.00;32.78;;;20.60;99.90;;;;;;4830577;29;19912;-90
2023/09/12 08:14:32;;;;;;;46.15;33.53;;;20.70;99.90;;;;;;4853334;29;20120;-89
2023/09/12 08:17:00;;;;;;;49.75;33.88;;;20.70;99.90;;;;;;4822148;29;20421;-90
2023/09/12 08:19:45;;;;;;;46.88;32.95;;;20.80;99.90;;;;;;4827567;29;20077;-89
2023/09/12 08:22:54;;;;;;;42.92;31.42;;;20.80;99.90;;;;;;4841720;29;20121;-89
2023/09/12 08:25:25;;;;;;;37.40;27.95;;;21.00;99.90;;;;;;4836978;29;20033;-91
2023/09/12 08:31:38;;;;;;;;;;;;;;;;;;;;;
2023/09/12 08:34:40;;;;;;;36.75;26.25;;;21.30;99.90;;;;;;4856115;29;20337;-90
2023/09/12 08:37:53;;;;;;;32.70;23.90;;;21.30;99.90;;;;;;4866946;29;20349;-89
2023/09/12 08:40:54;;;;;;;31.92;22.30;;;21.30;99.90;;;;;;4860804;29;20041;-89
2023/09/12 08:46:55;;;;;;;29.08;21.20;;;21.40;99.90;;;;;;4845678;29;20041;-89
2023/09/12 08:49:50;;;;;;;28.33;18.08;;;21.60;99.90;;;;;;4835044;29;20508;-89
2023/09/12 08:52:31;;;;;;;27.73;18.85;;;21.70;99.90;;;;;;4837346;29;20108;-89
2023/09/12 08:55:40;;;;;;;;;;;;;;;;;;;;;
2023/09/12 08:58:28;;;;;;;22.13;16.50;;;21.90;99.90;;;;;;4866726;29;20048;-89
2023/09/12 09:01:07;;;;;;;23.67;16.77;;;21.90;99.90;;;;;;4851908;29;20036;-89
2023/09/12 09:03:45;;;;;;;20.90;15.07;;;21.80;99.90;;;;;;4866839;29;20021;-88
2023/09/12 09:06:37;;;;;;;23.75;15.40;;;21.80;99.90;;;;;;4852605;29;20053;-88
2023/09/12 09:09:32;;;;;;;21.92;15.35;;;21.80;99.90;;;;;;4867834;29;20112;-92
2023/09/12 09:12:40;;;;;;;22.75;15.68;;;21.80;99.90;;;;;;4845937;29;20055;-89
2023/09/12 09:15:32;;;;;;;23.30;15.38;;;21.80;99.90;;;;;;4853201;29;20029;-88
2023/09/12 09:18:13;;;;;;;25.58;16.75;;;21.80;99.90;;;;;;4852364;29;20049;-89
2023/09/12 09:20:52;;;;;;;22.30;15.73;;;21.80;99.90;;;;;;4851159;29;20060;-92
2023/09/12 09:24:04;;;;;;;22.98;15.98;;;21.80;99.90;;;;;;4850596;29;20093;-90
2023/09/12 09:27:00;;;;;;;23.52;15.32;;;22.00;99.90;;;;;;4840440;29;20101;-91
2023/09/12 09:30:22;;;;;;;;;;;;;;;;;;;;;
2023/09/12 09:33:58;;;;;;;;;;;;;;;;;;;;;
2023/09/12 09:37:01;;;;;;;;;;;;;;;;;;;;;
2023/09/12 09:40:16;;;;;;;19.67;12.70;;;22.80;99.90;;;;;;4862326;29;20047;-90
2023/09/12 09:42:57;;;;;;;;;;;;;;;;;;;;;
2023/09/12 09:45:53;;;;;;;;;;;;;;;;;;;;;
2023/09/12 09:48:57;;;;;;;21.20;13.77;;;23.00;99.90;;;;;;4865796;29;20040;-90
2023/09/12 09:51:57;;;;;;;;;;;;;;;;;;;;;
2023/09/12 09:54:52;;;;;;;19.10;12.65;;;23.10;99.90;;;;;;4851573;29;20037;-90
2023/09/12 09:57:54;;;;;;;16.30;12.05;;;23.20;99.90;;;;;;4837280;29;20121;-90
2023/09/12 10:01:06;;;;;;;;;;;;;;;;;;;;;
2023/09/12 10:03:55;;;;;;;;;;;;;;;;;;;;;
2023/09/12 10:07:15;;;;;;;18.77;12.30;;;23.20;99.90;;;;;;4870695;29;20468;-90
2023/09/12 10:10:05;;;;;;;20.98;13.82;;;23.10;99.90;;;;;;4830018;29;20041;-90
2023/09/12 10:13:08;;;;;;;23.08;14.70;;;23.10;99.90;;;;;;4869941;29;20441;-90
2023/09/12 10:16:04;;;;;;;22.85;12.27;;;23.00;99.90;;;;;;4823501;29;20044;-90
2023/09/12 10:19:11;;;;;;;19.23;12.77;;;22.90;99.90;;;;;;4836607;29;20068;-90
2023/09/12 10:22:25;;;;;;;18.23;12.50;;;22.80;99.90;;;;;;4849072;29;20037;-90
2023/09/12 10:25:29;;;;;;;19.73;12.68;;;22.60;99.90;;;;;;4835821;29;20056;-90
2023/09/12 10:28:10;;;;;;;17.05;10.93;;;22.50;99.90;;;;;;4851304;29;20425;-90
2023/09/12 10:31:25;;;;;;;;;;;;;;;;;;;;;
2023/09/12 10:38:13;;;;;;;15.80;12.13;;;22.30;99.90;;;;;;4866504;29;20037;-90
2023/09/12 10:41:04;;;;;;;13.73;8.98;;;22.20;99.90;;;;;;4852937;29;20148;-90
2023/09/12 10:43:36;;;;;;;16.67;10.77;;;22.20;99.90;;;;;;4866609;29;20044;-90
2023/09/12 10:46:44;;;;;;;;;;;;;;;;;;;;;
2023/09/12 10:49:33;;;;;;;13.20;9.80;;;22.20;99.90;;;;;;4837456;29;20033;-90
2023/09/12 10:56:50;;;;;;;12.77;9.60;;;22.20;99.90;;;;;;4804095;29;20046;-89
2023/09/12 11:00:04;;;;;;;13.90;10.05;;;22.20;99.90;;;;;;4854817;29;20037;-90
2023/09/12 11:02:43;;;;;;;16.08;10.27;;;22.20;99.90;;;;;;4855217;29;20025;-90
2023/09/12 11:10:45;;;;;;;;;;;;;;;;;;;;;
2023/09/12 11:21:08;;;;;;;11.82;8.75;;;22.20;99.90;;;;;;4816730;29;20083;-91
2023/09/12 11:23:58;;;;;;;;;;;;;;;;;;;;;
2023/09/12 11:27:12;;;;;;;;;;;;;;;;;;;;;
2023/09/12 11:29:55;;;;;;;11.88;8.98;;;22.30;99.90;;;;;;4814059;29;20049;-90
2023/09/12 11:33:13;;;;;;;13.40;8.13;;;22.30;99.90;;;;;;4797677;29;20521;-90
2023/09/12 11:36:13;;;;;;;;;;;;;;;;;;;;;
2023/09/12 11:39:51;;;;;;;12.48;7.30;;;22.30;99.90;;;;;;4798747;29;19920;-89
2023/09/12 11:43:36;;;;;;;10.05;7.38;;;22.40;99.90;;;;;;4810687;29;20042;-91
2023/09/12 11:50:36;;;;;;;11.00;7.68;;;22.60;99.90;;;;;;4853045;29;20037;-91
2023/09/12 11:58:09;;;;;;;7.78;5.63;;;22.80;99.90;;;;;;4852456;29;20036;-90
2023/09/12 12:01:49;;;;;;;9.20;5.80;;;22.70;99.90;;;;;;4839906;29;20042;-90
2023/09/12 12:05:13;;;;;;;;;;;;;;;;;;;;;
2023/09/12 12:08:59;;;;;;;;;;;;;;;;;;;;;
2023/09/12 12:12:04;;;;;;;;;;;;;;;;;;;;;
2023/09/12 12:18:34;;;;;;;13.75;6.10;;;22.80;99.90;;;;;;4819786;29;20053;-90
2023/09/12 12:21:21;;;;;;;12.15;6.03;;;22.80;99.90;;;;;;4815966;29;20450;-90
2023/09/12 12:24:17;;;;;;;7.63;5.10;;;22.70;99.90;;;;;;4802242;29;20048;-91
2023/09/12 12:27:28;;;;;;;6.97;4.78;;;22.70;99.90;;;;;;4830533;29;20132;-91
2023/09/12 12:30:17;;;;;;;8.70;5.88;;;22.70;99.90;;;;;;4848840;29;20125;-91
2023/09/12 12:32:56;;;;;;;7.40;5.38;;;22.70;99.90;;;;;;4819034;29;20037;-89
2023/09/12 12:36:20;;;;;;;;;;;;;;;;;;;;;
2023/09/12 12:39:23;;;;;;;;;;;;;;;;;;;;;
2023/09/12 12:42:25;;;;;;;;;;;;;;;;;;;;;
2023/09/12 12:51:59;;;;;;;;;;;;;;;;;;;;;
2023/09/12 12:55:04;;;;;;;;;;;;;;;;;;;;;
2023/09/12 12:58:20;;;;;;;7.57;4.75;;;22.90;99.90;;;;;;4847269;29;20061;-93
2023/09/12 13:01:09;;;;;;;;;;;;;;;;;;;;;
2023/09/12 13:04:04;;;;;;;10.10;5.90;;;23.10;99.90;;;;;;4833170;29;20046;-90
2023/09/12 13:11:04;;;;;;;9.40;5.57;;;23.20;99.90;;;;;;4833261;29;20140;-88
2023/09/12 13:17:09;;;;;;;;;;;;;;;;;;;;;
2023/09/12 13:20:23;;;;;;;8.10;5.30;;;23.30;99.90;;;;;;4856205;29;20053;-88
2023/09/12 13:23:10;;;;;;;9.65;5.10;;;23.30;99.90;;;;;;4835892;29;20063;-89
2023/09/12 13:30:24;;;;;;;10.70;5.05;;;23.10;99.90;;;;;;4844367;29;20136;-89
2023/09/12 13:32:53;;;;;;;8.25;5.20;;;23.00;99.90;;;;;;4818049;29;20037;-88
2023/09/12 13:35:34;;;;;;;8.45;5.18;;;23.00;99.90;;;;;;4854401;29;20448;-88
2023/09/12 13:39:16;;;;;;;;;;;;;;;;;;;;;
2023/09/12 13:42:31;;;;;;;;;;;;;;;;;;;;;
2023/09/12 13:45:54;;;;;;;12.13;4.10;;;22.80;99.90;;;;;;4848468;29;20044;-88
2023/09/12 13:48:42;;;;;;;6.80;3.47;;;22.80;99.90;;;;;;4833661;29;20461;-88
2023/09/12 13:54:49;;;;;;;7.55;3.65;;;22.70;99.90;;;;;;4862716;29;20041;-90
2023/09/12 13:58:23;;;;;;;;;;;;;;;;;;;;;
2023/09/12 14:12:29;;;;;;;6.50;3.53;;;22.40;99.90;;;;;;4836052;29;20065;-88
2023/09/12 14:15:17;;;;;;;9.63;4.00;;;22.50;99.90;;;;;;4844354;29;20396;-88
2023/09/12 14:18:10;;;;;;;7.15;3.92;;;22.50;99.90;;;;;;4852046;29;20045;-90
2023/09/12 14:47:45;;;;;;;;;;;22.60;99.90;;;;;;4843987;29;20534;-90
2023/09/12 14:55:28;;;;;;;6.93;3.20;;;22.50;99.90;;;;;;4843696;29;20094;-90
2023/09/12 15:16:58;;;;;;;;;;;;;;;;;;;;;
2023/09/12 15:24:54;;;;;;;;;;;;;;;;;;;;;
2023/09/12 15:27:37;;;;;;;4.90;2.13;;;23.80;99.90;;;;;;4799011;29;20426;-92
2023/09/12 15:31:03;;;;;;;;;;;;;;;;;;;;;
2023/09/12 15:34:03;;;;;;;;;;;;;;;;;;;;;
2023/09/12 15:37:37;;;;;;;5.50;1.92;;;23.90;99.90;;;;;;4798151;29;20065;-90
2023/09/12 15:41:08;;;;;;;;;;;;;;;;;;;;;
2023/09/12 15:47:25;;;;;;;;;;;;;;;;;;;;;
2023/09/12 15:50:44;;;;;;;4.32;1.60;;;23.70;99.90;;;;;;4812931;29;20053;-91
2023/09/12 15:57:04;;;;;;;3.92;1.60;;;23.50;99.90;;;;;;4776070;30;20398;-92
2023/09/12 15:59:55;;;;;;;7.00;2.13;;;23.30;99.90;;;;;;4846009;29;20038;-90
2023/09/12 16:06:40;;;;;;;6.88;1.90;;;23.00;99.90;;;;;;4833350;29;20049;-91
2023/09/12 16:10:08;;;;;;;;;;;;;;;;;;;;;
2023/09/12 16:13:49;;;;;;;;;;;;;;;;;;;;;
2023/09/12 16:16:58;;;;;;;4.43;1.60;;;22.30;99.90;;;;;;4851820;29;20136;-92
2023/09/12 16:20:28;;;;;;;;;;;;;;;;;;;;;
2023/09/12 16:23:37;;;;;;;5.25;1.40;;;22.10;99.90;;;;;;4835431;29;20057;-90
2023/09/12 16:30:04;;;;;;;;;;;;;;;;;;;;;
2023/09/12 16:33:16;;;;;;;3.65;1.42;;;21.90;99.90;;;;;;4860685;29;20034;-89
2023/09/12 16:40:34;;;;;;;;;;;;;;;;;;;;;
2023/09/12 16:43:23;;;;;;;;;;;;;;;;;;;;;
2023/09/12 16:46:28;;;;;;;5.88;1.88;;;21.50;99.90;;;;;;4835008;29;20046;-90
2023/09/12 16:49:43;;;;;;;3.55;1.30;;;21.40;99.90;;;;;;4819248;29;20069;-91
2023/09/12 16:52:42;;;;;;;;;;;;;;;;;;;;;
2023/09/12 16:56:05;;;;;;;4.63;1.65;;;21.30;99.90;;;;;;4831880;29;20341;-90
2023/09/12 16:59:27;;;;;;;;;;;;;;;;;;;;;
2023/09/12 17:03:11;;;;;;;6.78;1.70;;;21.10;99.90;;;;;;4830335;29;20384;-91
2023/09/12 17:06:52;;;;;;;3.75;1.50;;;21.00;99.90;;;;;;4826750;29;20045;-90
2023/09/12 17:10:20;;;;;;;6.25;1.83;;;21.00;99.90;;;;;;4830876;29;20041;-90
2023/09/12 17:13:21;;;;;;;;;;;;;;;;;;;;;
2023/09/12 17:16:34;;;;;;;5.13;1.70;;;20.80;99.90;;;;;;4864210;29;20133;-90
2023/09/12 17:19:43;;;;;;;6.25;2.00;;;20.80;99.90;;;;;;4857240;29;20044;-92
2023/09/12 17:22:39;;;;;;;5.32;1.90;;;20.80;99.90;;;;;;4849455;29;20337;-90
2023/09/12 17:25:16;;;;;;;4.63;1.73;;;20.70;99.90;;;;;;4860453;29;20035;-91
2023/09/12 17:28:26;;;;;;;;;;;;;;;;;;;;;
2023/09/12 17:31:10;;;;;;;;;;;;;;;;;;;;;
2023/09/12 17:33:47;;;;;;;4.72;1.50;;;20.60;99.90;;;;;;4838568;29;20033;-90
2023/09/12 17:36:36;;;;;;;5.35;1.75;;;20.50;99.90;;;;;;4840779;29;20061;-90
2023/09/12 17:39:37;;;;;;;4.28;1.80;;;20.50;99.90;;;;;;4852682;29;20037;-91
2023/09/12 17:42:47;;;;;;;4.28;1.63;;;20.50;99.90;;;;;;4851782;29;20060;-90
2023/09/12 17:45:30;;;;;;;6.18;2.10;;;20.50;99.90;;;;;;4848626;29;20449;-90
2023/09/12 17:48:20;;;;;;;6.55;1.80;;;20.40;99.90;;;;;;4833899;29;20085;-90
2023/09/12 17:51:15;;;;;;;5.15;1.80;;;20.30;99.90;;;;;;4819809;29;20434;-90
2023/09/12 17:54:25;;;;;;;5.28;1.77;;;20.30;99.90;;;;;;4834778;29;20413;-90
2023/09/12 17:57:15;;;;;;;6.18;1.58;;;20.30;99.90;;;;;;4821220;29;20052;-90
2023/09/12 17:59:44;;;;;;;6.40;2.33;;;20.20;99.90;;;;;;4831368;29;20040;-89
2023/09/12 18:02:53;;;;;;;4.03;1.92;;;20.20;99.90;;;;;;4820158;29;20128;-89
2023/09/12 18:06:50;;;;;;;4.60;1.90;;;20.20;99.90;;;;;;4838335;29;20053;-91
2023/09/12 18:09:52;;;;;;;4.70;1.88;;;20.20;99.90;;;;;;4857055;29;20100;-89
2023/09/12 18:13:02;;;;;;;4.18;1.90;;;20.10;99.90;;;;;;4846868;29;20132;-90
2023/09/12 18:16:14;;;;;;;4.55;1.83;;;20.10;99.90;;;;;;4820351;29;20098;-90
2023/09/12 18:19:28;;;;;;;5.68;2.00;;;20.00;99.90;;;;;;4831481;29;20041;-91
2023/09/12 18:22:25;;;;;;;4.07;1.95;;;20.00;99.90;;;;;;4847309;29;20041;-91
2023/09/12 18:25:00;;;;;;;5.43;1.80;;;20.10;99.90;;;;;;4819643;29;20546;-92
2023/09/12 18:28:11;;;;;;;5.60;2.00;;;20.00;99.90;;;;;;4846717;29;20188;-91
2023/09/12 18:30:54;;;;;;;5.40;2.20;;;19.90;99.90;;;;;;4820020;29;20132;-93
2023/09/12 18:34:21;;;;;;;7.70;2.25;;;20.00;99.90;;;;;;4847181;29;20040;-91
2023/09/12 18:37:24;;;;;;;6.40;2.28;;;19.90;99.90;;;;;;4824578;29;20045;-91
2023/09/12 18:40:57;;;;;;;;;;;19.90;99.90;;;;;;4829960;29;20037;-90
2023/09/12 18:44:00;;;;;;;6.00;2.50;;;19.80;99.90;;;;;;4831506;29;19918;-91
2023/09/12 18:47:14;;;;;;;7.78;2.65;;;19.80;99.90;;;;;;4829492;29;20090;-90
2023/09/12 18:49:59;;;;;;;6.88;2.53;;;19.80;99.90;;;;;;4814229;29;20359;-90
2023/09/12 18:53:38;;;;;;;4.93;2.72;;;19.80;99.90;;;;;;4828580;29;20434;-91
2023/09/12 18:57:04;;;;;;;;;;;;;;;;;;;;;
2023/09/12 19:00:20;;;;;;;;;;;;;;;;;;;;;
2023/09/12 19:03:27;;;;;;;8.27;3.38;;;19.80;99.90;;;;;;4844656;29;20034;-92
2023/09/12 19:06:34;;;;;;;5.82;3.13;;;19.70;99.90;;;;;;4822098;29;20466;-91
2023/09/12 19:09:34;;;;;;;7.15;3.33;;;19.70;99.90;;;;;;4805885;29;20350;-90
2023/09/12 19:12:31;;;;;;;8.80;4.03;;;19.70;99.90;;;;;;4837066;29;20055;-91
2023/09/12 19:15:33;;;;;;;;;;;;;;;;;;;;;
2023/09/12 19:18:42;;;;;;;;;;;;;;;;;;;;;
2023/09/12 19:21:46;;;;;;;12.17;4.37;;;19.60;99.90;;;;;;4886731;29;20055;-90
2023/09/12 19:24:42;;;;;;;8.30;4.32;;;19.60;99.90;;;;;;4870015;29;20040;-92
2023/09/12 19:27:33;;;;;;;9.57;4.78;;;19.60;99.90;;;;;;4873810;29;20512;-90
2023/09/12 19:30:10;;;;;;;10.82;4.47;;;19.50;99.90;;;;;;4868978;29;20025;-91
2023/09/12 19:33:21;;;;;;;;;;;;;;;;;;;;;
2023/09/12 19:36:25;;;;;;;8.38;4.60;;;19.50;99.90;;;;;;4876014;29;20321;-91
2023/09/12 19:39:50;;;;;;;7.47;4.25;;;19.50;99.90;;;;;;4860977;29;20116;-91
2023/09/12 19:42:27;;;;;;;9.95;4.32;;;19.50;99.90;;;;;;4881329;29;20410;-91
2023/09/12 19:45:01;;;;;;;9.43;3.97;;;19.40;99.90;;;;;;4862195;29;20036;-91
2023/09/12 19:47:48;;;;;;;;;;;;;;;;;;;;;
2023/09/12 19:50:34;;;;;;;7.20;3.85;;;19.40;99.90;;;;;;4868463;29;20405;-93
2023/09/12 19:54:18;;;;;;;;;;;;;;;;;;;;;
2023/09/12 19:57:09;;;;;;;7.55;3.80;;;19.40;99.90;;;;;;4867791;29;20033;-90
2023/09/12 19:59:48;;;;;;;9.98;3.97;;;19.40;99.90;;;;;;4870553;29;20037;-91
2023/09/12 20:02:58;;;;;;;10.88;4.00;;;19.40;99.90;;;;;;4840608;29;20068;-91
2023/09/12 20:05:59;;;;;;;6.85;4.20;;;19.40;99.90;;;;;;4870324;29;20448;-90
2023/09/12 20:08:38;;;;;;;8.23;3.88;;;19.40;99.90;;;;;;4838937;29;20045;-91
2023/09/12 20:11:44;;;;;;;9.80;4.25;;;19.30;99.90;;;;;;4876676;29;20049;-90
2023/09/12 20:15:06;;;;;;;10.98;4.55;;;19.30;99.90;;;;;;4847462;29;20041;-90
2023/09/12 20:18:32;;;;;;;12.18;4.28;;;19.30;99.90;;;;;;4850230;29;20107;-91
2023/09/12 20:21:19;;;;;;;15.25;5.55;;;19.30;99.90;;;;;;4871986;29;20032;-89
2023/09/12 20:24:28;;;;;;;12.27;5.88;;;19.20;99.90;;;;;;4840543;29;20374;-91
2023/09/12 20:27:04;;;;;;;17.58;5.28;;;19.20;99.90;;;;;;4852339;29;20033;-90
2023/09/12 20:33:05;;;;;;;14.55;4.57;;;19.20;99.90;;;;;;4833261;29;20064;-90
2023/09/12 20:39:54;;;;;;;10.35;3.58;;;19.20;99.90;;;;;;4877949;29;20044;-90
2023/09/12 20:43:29;;;;;;;12.18;3.80;;;19.20;99.90;;;;;;4865954;29;20219;-90
2023/09/12 20:45:47;;;;;;;10.23;3.38;;;19.20;99.90;;;;;;4842165;29;20064;-89
2023/09/12 20:49:17;;;;;;;14.85;3.50;;;19.20;99.90;;;;;;4843158;29;20051;-90
2023/09/12 20:52:07;;;;;;;12.00;3.92;;;19.20;99.90;;;;;;4847750;29;20034;-90
2023/09/12 20:55:08;;;;;;;10.20;3.20;;;19.20;99.90;;;;;;4836888;29;20116;-89
2023/09/12 20:58:21;;;;;;;;;;;;;;;;;;;;;
2023/09/12 21:01:42;;;;;;;;;;;;;;;;;;;;;
2023/09/12 21:04:48;;;;;;;10.50;2.85;;;19.10;99.90;;;;;;4832671;29;20473;-90
2023/09/12 21:07:42;;;;;;;13.05;2.78;;;19.00;99.90;;;;;;4853132;29;20038;-89
2023/09/12 21:13:47;;;;;;;11.50;2.50;;;19.00;99.90;;;;;;4840062;29;20085;-90
2023/09/12 21:17:08;;;;;;;;;;;;;;;;;;;;;
2023/09/12 21:20:17;;;;;;;15.70;3.10;;;19.00;99.90;;;;;;4853796;29;20065;-90
2023/09/12 21:23:23;;;;;;;13.27;2.55;;;19.00;99.90;;;;;;4833857;29;20190;-90
2023/09/12 21:26:25;;;;;;;11.18;2.67;;;19.00;99.90;;;;;;4842328;29;20169;-89
2023/09/12 21:29:35;;;;;;;;;;;;;;;;;;;;;
2023/09/12 21:32:17;;;;;;;12.77;2.75;;;19.00;99.90;;;;;;4869337;29;20036;-90
2023/09/12 21:35:21;;;;;;;;;;;;;;;;;;;;;
2023/09/12 21:37:55;;;;;;;10.95;2.85;;;19.00;99.90;;;;;;4882269;29;20025;-90
2023/09/12 21:41:02;;;;;;;11.80;2.45;;;18.90;99.90;;;;;;4842051;29;20235;-89
2023/09/12 21:44:13;;;;;;;11.32;2.80;;;18.90;99.90;;;;;;4848082;29;20041;-89
2023/09/12 21:46:51;;;;;;;10.00;2.40;;;18.90;99.90;;;;;;4820934;29;20044;-90
2023/09/12 21:49:30;;;;;;;;;;;;;;;;;;;;;
2023/09/12 21:52:33;;;;;;;14.43;2.72;;;18.90;99.90;;;;;;4855124;29;20437;-90
2023/09/12 21:55:57;;;;;;;8.48;2.83;;;18.90;99.90;;;;;;4848320;29;20033;-90
2023/09/12 21:58:28;;;;;;;9.82;2.58;;;18.90;99.90;;;;;;4851020;29;20093;-89
2023/09/12 22:01:10;;;;;;;13.25;2.47;;;18.90;99.90;;;;;;4865874;29;20466;-89
2023/09/12 22:04:26;;;;;;;;;;;;;;;;;;;;;
2023/09/12 22:07:41;;;;;;;12.75;2.53;;;19.00;99.90;;;;;;4829325;29;20124;-91
2023/09/12 22:10:21;;;;;;;11.77;2.65;;;19.00;99.90;;;;;;4834563;29;20132;-89
2023/09/12 22:13:11;;;;;;;11.07;2.90;;;19.00;99.90;;;;;;4845317;29;20053;-90
2023/09/12 22:16:19;;;;;;;11.10;2.72;;;19.00;99.90;;;;;;4833245;29;20124;-89
2023/09/12 22:19:29;;;;;;;11.13;2.80;;;19.00;99.90;;;;;;4843922;29;20108;-90
2023/09/12 22:22:29;;;;;;;11.50;2.70;;;19.00;99.90;;;;;;4847469;29;20082;-91
2023/09/12 22:25:28;;;;;;;11.52;2.85;;;19.00;99.90;;;;;;4849559;29;20060;-90
2023/09/12 22:28:16;;;;;;;;;;;18.90;99.90;;;;;;4817367;29;20037;-89
2023/09/12 22:31:12;;;;;;;10.77;2.70;;;18.90;99.90;;;;;;4835080;29;20017;-89
2023/09/12 22:33:55;;;;;;;11.30;2.63;;;18.90;99.90;;;;;;4837445;29;20037;-90
2023/09/12 22:36:41;;;;;;;14.45;2.88;;;19.00;99.90;;;;;;4850821;29;20113;-90
2023/09/12 22:39:17;;;;;;;;;;;19.00;99.90;;;;;;4850073;29;20212;-90
2023/09/12 22:42:14;;;;;;;11.40;2.83;;;18.90;99.90;;;;;;4835440;29;19912;-90
2023/09/12 22:45:10;;;;;;;7.70;2.60;;;18.90;99.90;;;;;;4852975;29;20037;-91